Time;durP1;ratioP1;P1;durP2;ratioP2;P2;SDS_P1;SDS_P2;PMS_P1;PMS_P2;Temp;Humidity;BMP_temperature;BMP_pressure;BME280_temperature;BME280_humidity;BME280_pressure;Samples;Min_cycle;Max_cycle;Signal;HPM_P1;HPM_P2
2022/06/07 00:00:39;;;;;;;1.42;1.33;;;23.50;42.30;;;27.40;27.90;100990.97;5113344;28;20047;-20
2022/06/07 00:03:05;;;;;;;1.30;1.30;;;23.50;42.30;;;27.43;27.61;100996.09;5113878;28;20399;-21
2022/06/07 00:05:31;;;;;;;1.45;1.35;;;23.50;42.30;;;27.41;27.55;100989.97;5113460;28;20050;-21
2022/06/07 00:07:57;;;;;;;1.17;1.10;;;23.50;42.30;;;27.42;27.71;100998.91;5113232;28;20043;-20
2022/06/07 00:10:25;;;;;;;1.17;1.08;;;23.50;42.30;;;27.39;27.93;100988.41;5112050;28;20047;-20
2022/06/07 00:12:51;;;;;;;1.13;1.13;;;23.50;42.30;;;27.43;27.64;100996.09;5113147;28;20467;-20
2022/06/07 00:15:17;;;;;;;1.40;1.30;;;23.50;42.40;;;27.42;27.56;100998.91;5113201;28;20051;-20
2022/06/07 00:17:44;;;;;;;1.30;1.20;;;23.50;42.30;;;27.39;27.77;100997.31;5113327;28;20077;-20
2022/06/07 00:20:11;;;;;;;1.30;1.20;;;23.50;42.30;;;27.38;27.54;100992.09;5112133;28;20036;-20
2022/06/07 00:22:38;;;;;;;1.30;1.20;;;23.50;42.30;;;27.42;27.88;100999.75;5113179;28;20413;-21
2022/06/07 00:25:08;;;;;;;1.58;1.48;;;23.50;42.30;;;27.36;27.86;100981.47;5113462;28;20039;-20
2022/06/07 00:27:34;;;;;;;1.10;1.10;;;23.50;42.30;;;27.41;27.67;100992.66;5111592;28;20044;-20
2022/06/07 00:30:03;;;;;;;1.42;1.33;;;23.50;42.30;;;27.41;27.60;100981.06;5111626;28;20050;-21
2022/06/07 00:32:29;;;;;;;1.10;1.10;;;23.50;42.30;;;27.42;27.59;100980.09;5112984;28;20387;-20
2022/06/07 00:34:55;;;;;;;1.20;1.10;;;23.50;42.30;;;27.39;27.55;100978.53;5060489;28;20051;-20
2022/06/07 00:37:21;;;;;;;1.30;1.20;;;23.50;42.40;;;27.40;27.52;100969.50;5109994;28;20044;-20
2022/06/07 00:39:46;;;;;;;1.33;1.23;;;23.50;42.30;;;27.40;27.83;100958.75;5112664;28;20044;-20
2022/06/07 00:42:12;;;;;;;1.25;1.15;;;23.50;42.30;;;27.35;27.88;100951.09;5093674;28;20044;-20
2022/06/07 00:44:44;;;;;;;1.40;1.30;;;23.50;42.30;;;27.35;27.74;100951.09;5109930;28;20044;-20
2022/06/07 00:47:25;;;;;;;1.10;1.10;;;23.50;42.40;;;27.39;27.87;100958.88;5113096;28;20054;-20
2022/06/07 00:50:12;;;;;;;1.13;1.00;;;23.50;42.30;;;27.37;27.62;100945.59;5112615;28;20479;-20
2022/06/07 00:52:38;;;;;;;1.50;1.40;;;23.50;42.30;;;27.39;27.86;100940.09;5094443;28;20172;-20
2022/06/07 00:55:08;;;;;;;1.50;1.40;;;23.50;42.30;;;27.35;27.74;100931.47;5094328;28;20601;-20
2022/06/07 00:57:41;;;;;;;1.40;1.30;;;23.50;42.40;;;27.39;27.87;100937.41;5094938;28;20127;-20
2022/06/07 01:00:17;;;;;;;1.30;1.20;;;23.50;42.40;;;27.37;28.02;100934.00;5094721;28;20380;-20
2022/06/07 01:02:45;;;;;;;1.10;1.10;;;23.50;42.40;;;27.39;27.79;100937.41;5094558;28;20460;-21
2022/06/07 01:05:12;;;;;;;1.50;1.40;;;23.50;42.40;;;27.34;27.56;100930.59;5112742;28;20050;-20
2022/06/07 01:10:43;;;;;;;1.50;1.40;;;23.50;42.40;;;27.38;27.88;100944.59;5111799;28;20104;-20
2022/06/07 01:13:20;;;;;;;1.27;1.17;;;23.50;42.40;;;27.36;27.79;100941.19;5092786;28;20119;-20
2022/06/07 01:15:49;;;;;;;1.17;1.10;;;23.50;42.40;;;27.31;27.69;100925.47;5112292;28;20379;-20
2022/06/07 01:18:17;;;;;;;1.10;1.00;;;23.50;42.40;;;27.33;27.64;100931.59;5111445;28;20036;-20
2022/06/07 01:20:45;;;;;;;1.05;1.02;;;23.50;42.40;;;27.38;27.87;100944.59;5093989;28;20134;-21
2022/06/07 01:23:11;;;;;;;1.20;1.20;;;23.40;42.40;;;27.38;27.57;100938.38;5094821;28;20090;-20
2022/06/07 01:25:37;;;;;;;1.30;1.20;;;23.40;42.30;;;27.35;27.73;100940.34;5082450;28;20036;-20
2022/06/07 01:28:04;;;;;;;1.20;1.10;;;23.50;42.40;;;27.34;27.96;100924.38;5097556;28;20050;-20
2022/06/07 01:30:30;;;;;;;1.48;1.38;;;23.50;42.40;;;27.36;27.69;100935.81;5097494;28;20099;-20
2022/06/07 01:32:57;;;;;;;1.30;1.20;;;23.40;42.40;;;27.35;27.84;100929.63;5114814;28;20036;-21
2022/06/07 01:35:22;;;;;;;0.98;0.90;;;23.50;42.40;;;27.35;28.01;100916.19;5114300;28;20101;-20
2022/06/07 01:37:48;;;;;;;1.58;1.48;;;23.40;42.40;;;27.32;27.85;100905.72;5115769;28;20046;-20
2022/06/07 01:42:58;;;;;;;1.25;1.15;;;23.50;42.40;;;27.31;27.79;100887.06;5115985;28;20036;-20
2022/06/07 01:45:24;;;;;;;1.30;1.20;;;23.50;42.40;;;27.29;27.79;100902.47;5115889;28;20108;-20
2022/06/07 01:47:50;;;;;;;1.10;1.10;;;23.50;42.40;;;27.31;27.92;100904.00;5115470;28;20051;-20
2022/06/07 01:50:17;;;;;;;1.17;1.08;;;23.50;42.40;;;27.31;27.71;100895.13;5115467;28;20446;-20
2022/06/07 01:52:43;;;;;;;1.35;1.25;;;23.50;42.40;;;27.31;27.85;100906.69;5097377;28;20046;-20
2022/06/07 01:55:16;;;;;;;1.33;1.23;;;23.40;42.40;;;27.33;27.75;100891.31;5110910;28;20043;-20
2022/06/07 01:57:49;;;;;;;1.23;1.13;;;23.40;42.40;;;27.31;27.87;100884.38;5112906;28;20035;-20
2022/06/07 02:00:17;;;;;;;1.30;1.20;;;23.40;42.40;;;27.29;27.95;100881.81;5096950;28;20520;-20
2022/06/07 02:02:47;;;;;;;1.17;1.08;;;23.40;42.40;;;27.32;27.97;100884.25;5097106;28;20039;-21
2022/06/07 02:05:15;;;;;;;0.98;0.98;;;23.40;42.40;;;27.31;27.75;100890.59;5113854;28;20039;-20
2022/06/07 02:07:44;;;;;;;1.10;1.00;;;23.40;42.40;;;27.31;27.62;100885.22;5097530;28;20039;-20
2022/06/07 02:10:13;;;;;;;1.40;1.30;;;23.40;42.40;;;27.33;27.64;100877.91;5096692;28;20134;-20
2022/06/07 02:12:39;;;;;;;1.38;1.27;;;23.40;42.40;;;27.31;27.86;100871.78;5096028;28;20043;-20
2022/06/07 02:15:06;;;;;;;1.40;1.30;;;23.40;42.40;;;27.32;27.56;100876.19;5096772;28;20035;-21
2022/06/07 02:17:33;;;;;;;1.35;1.23;;;23.40;42.40;;;27.29;28.01;100863.03;5096767;28;20044;-20
2022/06/07 02:20:19;;;;;;;1.40;1.30;;;23.40;42.40;;;27.33;27.60;100874.34;5114296;28;20130;-21
2022/06/07 02:22:46;;;;;;;1.02;1.02;;;23.40;42.40;;;27.29;27.66;100862.19;5115335;28;20048;-20
2022/06/07 02:25:12;;;;;;;1.30;1.20;;;23.40;42.40;;;27.31;27.91;100863.75;5096936;28;20040;-20
2022/06/07 02:27:38;;;;;;;1.20;1.10;;;23.40;42.50;;;27.30;27.78;100874.63;5115353;28;20046;-20
2022/06/07 02:30:09;;;;;;;1.15;1.08;;;23.40;42.50;;;27.30;27.62;100888.06;5092768;28;20046;-20
2022/06/07 02:32:35;;;;;;;1.20;1.20;;;23.40;42.50;;;27.28;27.66;100872.06;5111430;28;20097;-21
2022/06/07 02:35:04;;;;;;;1.08;1.08;;;23.40;42.50;;;27.31;27.63;100873.63;5095463;28;20494;-20
2022/06/07 02:37:33;;;;;;;1.30;1.20;;;23.40;42.50;;;27.28;27.86;100863.13;5096432;28;20039;-20
2022/06/07 02:39:59;;;;;;;1.15;1.10;;;23.40;42.50;;;27.26;27.88;100855.22;5114556;28;20043;-21
2022/06/07 02:42:28;;;;;;;0.95;0.95;;;23.40;42.50;;;27.25;27.78;100861.59;5093966;28;20040;-20
2022/06/07 02:44:55;;;;;;;1.17;1.08;;;23.40;42.50;;;27.29;27.87;100865.72;5111577;28;20047;-20
2022/06/07 02:47:21;;;;;;;0.90;0.90;;;23.40;42.50;;;27.29;27.92;100872.94;5111313;28;20085;-20
2022/06/07 02:49:53;;;;;;;1.38;1.27;;;23.40;42.50;;;27.30;27.90;100867.44;5111262;28;20104;-20
2022/06/07 02:52:20;;;;;;;1.52;1.42;;;23.40;42.50;;;27.25;27.90;100864.28;5095610;28;20108;-20
2022/06/07 02:55:02;;;;;;;1.10;1.10;;;23.40;42.50;;;27.25;27.80;100850.84;5095594;28;20374;-20
2022/06/07 02:57:28;;;;;;;0.98;0.93;;;23.40;42.50;;;27.29;27.77;100864.88;5096661;28;20067;-20
2022/06/07 02:59:54;;;;;;;1.25;1.15;;;23.40;42.50;;;27.26;27.99;100860.59;5095794;28;20069;-20
2022/06/07 03:02:20;;;;;;;0.90;0.90;;;23.40;42.50;;;27.28;27.71;100855.94;5112234;28;20139;-20
2022/06/07 03:04:46;;;;;;;1.27;1.17;;;23.40;42.50;;;27.28;28.03;100845.22;5114173;28;20047;-20
2022/06/07 03:07:12;;;;;;;1.23;1.15;;;23.40;42.50;;;27.27;27.72;100842.66;5096009;28;20547;-20
2022/06/07 03:09:39;;;;;;;1.40;1.30;;;23.40;42.50;;;27.26;28.04;100844.47;5095039;28;20077;-20
2022/06/07 03:12:06;;;;;;;1.00;1.00;;;23.40;42.50;;;27.28;27.78;100844.34;5114429;28;20043;-20
2022/06/07 03:14:33;;;;;;;0.93;0.93;;;23.40;42.50;;;27.27;28.04;100840.81;5094645;28;20391;-20
2022/06/07 03:17:00;;;;;;;1.20;1.10;;;23.40;42.50;;;27.24;28.08;100835.72;5113201;28;20054;-21
2022/06/07 03:19:31;;;;;;;1.30;1.20;;;23.40;42.50;;;27.25;27.98;100841.94;5113341;28;20051;-20
2022/06/07 03:21:57;;;;;;;1.27;1.17;;;23.40;42.50;;;27.28;27.80;100841.66;5095936;28;20086;-20
2022/06/07 03:24:26;;;;;;;1.10;1.00;;;23.40;42.50;;;27.23;27.65;100839.41;5114055;28;20394;-20
2022/06/07 03:26:54;;;;;;;1.05;1.05;;;23.40;42.50;;;27.26;27.93;100838.28;5095677;28;20046;-20
2022/06/07 03:29:20;;;;;;;1.20;1.10;;;23.40;42.50;;;27.27;27.96;100840.81;5095611;28;20484;-22
2022/06/07 03:31:46;;;;;;;1.20;1.13;;;23.40;42.50;;;27.27;27.78;100839.97;5095536;28;20471;-21
2022/06/07 03:34:13;;;;;;;1.30;1.20;;;23.40;42.50;;;27.27;27.82;100840.81;5112341;28;20040;-21
2022/06/07 03:36:40;;;;;;;1.15;1.13;;;23.40;42.50;;;27.26;27.91;100844.47;5112416;28;20483;-21
2022/06/07 03:39:09;;;;;;;1.13;1.13;;;23.40;42.50;;;27.26;28.08;100838.28;5095234;28;20047;-20
2022/06/07 03:41:39;;;;;;;1.20;1.10;;;23.40;42.50;;;27.26;28.02;100843.63;5095290;28;20040;-21
2022/06/07 03:44:12;;;;;;;1.17;1.17;;;23.40;42.50;;;27.24;28.05;100835.72;5114168;28;20467;-20
2022/06/07 03:46:44;;;;;;;1.02;1.02;;;23.40;42.50;;;27.23;27.99;100831.34;5112507;28;20051;-21
2022/06/07 03:49:10;;;;;;;1.00;1.00;;;23.40;42.50;;;27.26;27.97;100835.59;5113528;28;20047;-20
2022/06/07 03:51:37;;;;;;;1.10;1.10;;;23.40;42.50;;;27.23;27.79;100827.81;5112597;28;20103;-20
2022/06/07 03:54:04;;;;;;;1.23;1.13;;;23.30;42.50;;;27.26;28.09;100836.41;5113477;28;20548;-20
2022/06/07 03:56:32;;;;;;;1.30;1.20;;;23.40;42.50;;;27.25;27.96;100834.75;5095146;28;20055;-20
2022/06/07 03:59:01;;;;;;;1.45;1.20;;;23.40;42.50;;;27.25;27.78;100825.81;5095039;28;20048;-20
2022/06/07 04:01:29;;;;;;;1.48;1.30;;;23.40;42.50;;;27.25;27.64;100837.44;5094183;28;20074;-21
2022/06/07 04:04:02;;;;;;;1.00;1.00;;;23.30;42.40;;;27.21;27.63;100830.63;5112047;28;20089;-20
2022/06/07 04:06:34;;;;;;;1.00;1.00;;;23.40;42.50;;;27.25;27.79;100833.88;5113426;28;20039;-19
2022/06/07 04:09:08;;;;;;;1.10;1.10;;;23.40;42.50;;;27.23;28.00;100825.13;5112772;28;20046;-20
2022/06/07 04:11:38;;;;;;;1.00;1.00;;;23.30;42.50;;;27.25;27.91;100825.81;5095038;28;20048;-20
2022/06/07 04:14:04;;;;;;;1.20;1.10;;;23.40;42.50;;;27.27;27.96;100831.94;5113592;28;20039;-20
2022/06/07 04:16:31;;;;;;;1.13;1.10;;;23.40;42.50;;;27.23;27.66;100825.97;5094952;28;20035;-19
2022/06/07 04:19:19;;;;;;;1.17;1.08;;;23.30;42.50;;;27.24;28.02;100826.81;5095235;28;20040;-20
2022/06/07 04:21:46;;;;;;;0.93;0.93;;;23.40;42.50;;;27.26;27.73;100832.91;5093761;28;20051;-20
2022/06/07 04:24:25;;;;;;;1.08;1.00;;;23.40;42.50;;;27.26;27.91;100838.28;5094937;28;20040;-21
2022/06/07 04:26:52;;;;;;;0.85;0.85;;;23.40;42.50;;;27.24;27.92;100824.97;5111635;28;20036;-20
2022/06/07 04:29:19;;;;;;;1.10;1.10;;;23.40;42.50;;;27.25;27.68;100826.69;5094640;28;20039;-21
2022/06/07 04:31:45;;;;;;;0.90;0.90;;;23.30;42.50;;;27.26;27.69;100819.47;5093752;28;20436;-21
2022/06/07 04:34:16;;;;;;;0.90;0.90;;;23.30;42.50;;;27.25;27.79;100831.19;5094654;28;20039;-22
2022/06/07 04:36:43;;;;;;;1.05;1.05;;;23.40;42.50;;;27.22;27.67;100823.44;5091696;28;20377;-20
2022/06/07 04:39:12;;;;;;;1.08;1.08;;;23.30;42.50;;;27.25;27.75;100820.44;5091423;28;20373;-21
2022/06/07 04:41:44;;;;;;;1.20;1.10;;;23.30;42.50;;;27.22;27.85;100823.44;5094873;28;20036;-20
2022/06/07 04:44:13;;;;;;;1.10;1.10;;;23.40;42.50;;;27.21;27.71;100825.25;5111653;28;20046;-21
2022/06/07 04:46:39;;;;;;;1.40;1.10;;;23.40;42.50;;;27.23;27.82;100825.97;5111431;28;20044;-20
2022/06/07 04:49:06;;;;;;;1.13;1.10;;;23.30;42.50;;;27.23;27.73;100828.66;5077735;28;20035;-20
2022/06/07 04:51:37;;;;;;;0.80;0.80;;;23.30;42.50;;;27.19;27.95;100816.50;5111415;28;20536;-20
2022/06/07 04:54:10;;;;;;;0.90;0.90;;;23.30;42.50;;;27.25;27.84;100820.44;5094981;28;20054;-21
2022/06/07 04:56:41;;;;;;;;;;;23.30;42.40;;;27.34;27.61;100817.81;5095747;28;20051;-20
2022/06/07 04:59:08;;;;;;;0.82;0.80;;;23.40;42.50;;;27.30;27.67;100823.63;5114919;28;20351;-20
2022/06/07 05:01:42;;;;;;;0.90;0.90;;;23.30;42.40;;;27.27;27.71;100829.25;5098568;28;20126;-20
2022/06/07 05:04:14;;;;;;;1.20;1.10;;;23.30;42.40;;;27.24;27.98;100816.94;5115073;28;20379;-20
2022/06/07 05:06:43;;;;;;;0.90;0.90;;;23.30;42.40;;;27.25;27.90;100824.00;5115252;28;20446;-20
2022/06/07 05:09:27;;;;;;;0.88;0.88;;;23.30;42.40;;;27.22;27.84;100818.91;5115399;28;20046;-20
2022/06/07 05:12:00;;;;;;;0.80;0.80;;;23.30;42.40;;;27.24;27.94;100824.97;5098128;28;20043;-20
2022/06/07 05:14:31;;;;;;;1.00;1.00;;;23.30;42.40;;;27.23;27.89;100820.63;5097841;28;20043;-21
2022/06/07 05:16:57;;;;;;;1.02;1.00;;;23.40;42.50;;;27.21;27.73;100824.41;5097599;28;20383;-20
2022/06/07 05:19:33;;;;;;;1.27;1.17;;;23.30;42.40;;;27.20;27.87;100822.69;5097625;28;20040;-20
2022/06/07 05:22:08;;;;;;;0.82;0.82;;;23.40;43.00;;;27.25;27.98;100832.06;5114631;28;20035;-20
2022/06/07 05:24:39;;;;;;;1.00;1.00;;;23.40;42.50;;;27.24;27.66;100818.78;5115907;28;20054;-20
2022/06/07 05:27:08;;;;;;;0.88;0.88;;;23.30;42.40;;;27.24;27.87;100827.66;5096275;28;20039;-20
2022/06/07 05:29:53;;;;;;;1.02;1.00;;;23.30;42.40;;;27.24;27.65;100826.81;5096071;28;20073;-20
2022/06/07 05:32:39;;;;;;;1.38;1.20;;;23.40;42.40;;;27.26;27.90;100827.53;5116118;28;20058;-20
2022/06/07 05:35:08;;;;;;;0.95;0.95;;;23.40;42.40;;;27.24;27.70;100830.34;5095654;28;20534;-20
2022/06/07 05:37:41;;;;;;;0.90;0.90;;;23.40;42.40;;;27.25;28.03;100828.50;5114449;28;20390;-20
2022/06/07 05:40:17;;;;;;;1.00;1.00;;;23.40;42.40;;;27.21;27.88;100813.66;5097775;28;20113;-20
2022/06/07 05:42:44;;;;;;;0.70;0.70;;;23.40;42.40;;;27.23;27.72;100825.13;5096576;28;20044;-20
2022/06/07 05:45:13;;;;;;;0.90;0.90;;;23.40;42.40;;;27.22;27.84;100829.66;5115532;28;20050;-20
2022/06/07 05:47:42;;;;;;;0.90;0.90;;;23.30;42.30;;;27.24;27.64;100829.50;5095559;28;20051;-20
2022/06/07 05:50:09;;;;;;;1.23;1.13;;;23.40;42.40;;;27.24;28.04;100824.97;5112157;28;20043;-21
2022/06/07 05:52:40;;;;;;;0.93;0.90;;;23.40;42.40;;;27.20;27.93;100818.19;5114685;28;20043;-21
2022/06/07 05:55:09;;;;;;;1.17;1.02;;;23.30;42.40;;;27.21;27.83;100821.72;5114152;28;20058;-20
2022/06/07 05:57:37;;;;;;;0.90;0.90;;;23.40;42.40;;;27.23;27.82;100831.34;5097284;28;20044;-20
2022/06/07 06:00:09;;;;;;;0.90;0.90;;;23.40;42.40;;;27.25;28.03;100825.81;5097341;28;20044;-21
2022/06/07 06:02:42;;;;;;;0.90;0.90;;;23.30;42.40;;;27.21;27.75;100817.19;5114255;28;20130;-21
2022/06/07 06:05:19;;;;;;;1.00;1.00;;;23.40;42.40;;;27.24;27.66;100822.28;5096893;28;20052;-21
2022/06/07 06:10:33;;;;;;;0.80;0.80;;;23.40;42.40;;;27.22;27.82;100826.13;5113618;28;20062;-20
2022/06/07 06:13:03;;;;;;;0.70;0.70;;;23.40;42.30;;;27.23;27.84;100825.13;5115353;28;20058;-21
2022/06/07 06:15:29;;;;;;;0.80;0.80;;;23.40;42.30;;;27.23;27.65;100817.94;5096371;28;20043;-20
2022/06/07 06:17:56;;;;;;;0.73;0.73;;;23.40;42.30;;;27.24;27.58;100819.63;5114944;28;20050;-21
2022/06/07 06:20:35;;;;;;;0.93;0.93;;;23.40;42.30;;;27.22;27.60;100815.38;5114584;28;20071;-22
2022/06/07 06:23:06;;;;;;;0.80;0.80;;;23.40;42.30;;;27.21;27.86;100814.50;5096363;28;20044;-21
2022/06/07 06:25:32;;;;;;;0.80;0.80;;;23.30;42.30;;;27.24;27.86;100816.09;5095276;28;20051;-21
2022/06/07 06:27:58;;;;;;;0.80;0.80;;;23.40;42.40;;;27.23;27.69;100815.25;5114852;28;20096;-21
2022/06/07 06:30:25;;;;;;;0.77;0.77;;;23.40;42.40;;;27.22;27.73;100813.53;5096384;28;20078;-21
2022/06/07 06:33:01;;;;;;;1.13;1.02;;;23.30;42.30;;;27.24;27.71;100798.13;5114153;28;20364;-21
2022/06/07 06:35:30;;;;;;;0.80;0.80;;;23.40;42.40;;;27.23;28.01;100800.97;5096508;28;20036;-21
2022/06/07 06:37:58;;;;;;;0.95;0.93;;;23.40;42.40;;;27.22;27.95;100792.06;5113335;28;20040;-21
2022/06/07 06:40:25;;;;;;;1.00;0.90;;;23.40;42.30;;;27.26;27.68;100801.53;5095934;28;20059;-21
2022/06/07 06:42:55;;;;;;;1.00;1.00;;;23.40;42.30;;;27.22;27.95;100788.53;5096254;28;20047;-21
2022/06/07 06:45:42;;;;;;;0.80;0.80;;;23.40;42.30;;;27.25;27.93;100793.59;5113324;28;20047;-21
2022/06/07 06:48:15;;;;;;;0.90;0.90;;;23.40;42.30;;;27.23;27.89;100791.09;5096045;28;20384;-22
2022/06/07 06:50:43;;;;;;;1.05;1.00;;;23.40;42.30;;;27.24;27.83;100779.34;5112986;28;20063;-19
2022/06/07 06:53:09;;;;;;;1.17;1.10;;;23.40;42.30;;;27.23;27.81;100790.22;5096066;28;20148;-20
2022/06/07 06:55:36;;;;;;;0.93;0.93;;;23.40;42.40;;;27.24;27.62;100783.88;5096050;28;20066;-20
2022/06/07 06:58:04;;;;;;;0.90;0.90;;;23.40;42.40;;;27.25;27.92;100785.56;5094456;28;20040;-20
2022/06/07 07:00:30;;;;;;;0.90;0.90;;;23.40;42.40;;;27.24;27.91;100792.78;5096499;28;20066;-20
2022/06/07 07:02:56;;;;;;;0.70;0.70;;;23.40;42.30;;;27.25;27.68;100793.59;5095745;28;20047;-20
2022/06/07 07:05:23;;;;;;;1.23;1.00;;;23.40;42.40;;;27.23;27.55;100780.34;5113321;28;20046;-20
2022/06/07 07:07:57;;;;;;;0.82;0.82;;;23.40;42.40;;;27.23;27.73;100784.84;5111909;28;20475;-19
2022/06/07 07:10:25;;;;;;;1.00;1.00;;;23.40;42.40;;;27.24;27.64;100782.03;5095673;28;20050;-19
2022/06/07 07:12:52;;;;;;;0.88;0.88;;;23.40;42.40;;;27.26;27.62;100789.94;5094502;28;20044;-21
2022/06/07 07:15:20;;;;;;;0.75;0.75;;;23.40;42.30;;;27.27;27.96;100786.28;5095616;28;20039;-20
2022/06/07 07:17:54;;;;;;;1.13;1.05;;;23.40;42.30;;;27.28;27.82;100786.16;5093330;28;20036;-20
2022/06/07 07:20:23;;;;;;;0.77;0.77;;;23.50;42.30;;;27.31;27.80;100777.81;5092002;28;20090;-20
2022/06/07 07:22:51;;;;;;;0.90;0.90;;;23.40;42.20;;;27.32;27.66;100763.44;5111373;28;20444;-20
2022/06/07 07:25:18;;;;;;;0.88;0.88;;;23.40;42.10;;;27.29;27.78;100765.53;5095360;28;20146;-20
2022/06/07 07:27:44;;;;;;;0.80;0.80;;;23.50;42.20;;;27.35;27.94;100759.63;5112079;28;20480;-20
2022/06/07 07:30:12;;;;;;;0.90;0.90;;;23.50;42.10;;;27.33;27.51;100762.44;5095170;28;20050;-20
2022/06/07 07:32:40;;;;;;;0.70;0.70;;;23.60;42.10;;;27.39;27.70;100761.03;5113919;28;20523;-19
2022/06/07 07:35:09;;;;;;;0.90;0.90;;;23.50;42.00;;;27.40;27.88;100768.13;5113689;28;20069;-20
2022/06/07 07:37:45;;;;;;;0.80;0.80;;;23.60;42.00;;;27.38;27.48;100762.00;5092726;28;20515;-19
2022/06/07 07:40:13;;;;;;;0.90;0.90;;;23.60;42.00;;;27.43;27.36;100766.97;5095125;28;20391;-20
2022/06/07 07:42:42;;;;;;;1.08;1.00;;;23.60;42.00;;;27.40;27.64;100759.19;5095720;28;20066;-19
2022/06/07 07:45:12;;;;;;;0.90;0.90;;;23.60;42.00;;;27.40;27.77;100762.75;5092870;28;20091;-20
2022/06/07 07:47:42;;;;;;;1.15;1.05;;;23.60;42.00;;;27.42;27.32;100758.06;5110527;28;20059;-20
2022/06/07 07:50:11;;;;;;;0.70;0.70;;;23.60;42.00;;;27.41;27.69;100751.00;5095656;28;20044;-20
2022/06/07 07:52:40;;;;;;;0.70;0.70;;;23.60;41.90;;;27.44;27.74;100755.25;5095083;28;20075;-20
2022/06/07 07:55:12;;;;;;;0.80;0.80;;;23.60;42.00;;;27.47;27.61;100757.66;5113521;28;20040;-20
2022/06/07 07:57:39;;;;;;;1.67;0.98;;;23.60;41.90;;;27.46;27.52;100764.84;5113034;28;20043;-20
2022/06/07 08:00:09;;;;;;;0.75;0.75;;;23.60;41.90;;;27.45;27.75;100756.94;5075760;28;20163;-20
2022/06/07 08:02:39;;;;;;;0.82;0.82;;;23.60;41.90;;;27.46;27.38;100751.41;5113235;28;20138;-19
2022/06/07 08:05:15;;;;;;;0.88;0.88;;;23.70;41.90;;;27.49;27.27;100767.25;5095062;28;20051;-20
2022/06/07 08:07:42;;;;;;;0.85;0.85;;;23.70;41.90;;;27.45;27.31;100759.63;5111701;28;20053;-21
2022/06/07 08:10:09;;;;;;;0.88;0.88;;;23.60;41.90;;;27.45;27.46;100763.16;5113233;28;20138;-20
2022/06/07 08:12:36;;;;;;;0.85;0.85;;;23.60;41.90;;;27.45;27.70;100760.47;5094520;28;20044;-20
2022/06/07 08:15:04;;;;;;;0.80;0.80;;;23.60;41.90;;;27.47;27.70;100774.63;5113136;28;20067;-21
2022/06/07 08:17:30;;;;;;;1.15;1.05;;;23.60;42.00;;;27.46;27.58;100770.22;5112886;28;20047;-20
2022/06/07 08:19:56;;;;;;;0.80;0.80;;;23.60;42.50;;;27.42;27.56;100759.91;5112720;28;20078;-20
2022/06/07 08:22:23;;;;;;;1.02;1.02;;;23.60;42.00;;;27.43;27.66;100761.59;5112475;28;20467;-20
2022/06/07 08:24:49;;;;;;;0.80;0.80;;;23.60;42.00;;;27.47;27.41;100768.41;5112564;28;20130;-20
2022/06/07 08:27:15;;;;;;;1.33;0.93;;;23.60;41.90;;;27.49;27.63;100766.41;5112763;28;20491;-21
2022/06/07 08:29:41;;;;;;;0.90;0.90;;;23.60;41.90;;;27.46;27.48;100764.84;5112735;28;20043;-20
2022/06/07 08:32:08;;;;;;;0.90;0.90;;;23.70;41.90;;;27.47;27.43;100766.56;5112164;28;20090;-20
2022/06/07 08:37:36;;;;;;;2.45;0.90;;;23.70;42.20;;;27.49;27.78;100767.25;5115751;28;20098;-21
2022/06/07 08:40:41;;;;;;;1.02;1.00;;;23.70;42.00;;;27.57;27.52;100776.47;5115751;28;20067;-21
2022/06/07 08:43:17;;;;;;;0.70;0.70;;;23.80;42.10;;;27.56;27.59;100764.00;5115698;28;20039;-21
2022/06/07 08:45:46;;;;;;;2.28;0.90;;;23.80;42.00;;;27.63;27.92;100771.38;5115334;28;20056;-21
2022/06/07 08:48:18;;;;;;;0.68;0.68;;;23.90;42.00;;;27.68;27.81;100762.88;5097241;28;20051;-19
2022/06/07 08:51:17;;;;;;;1.95;0.90;;;23.90;41.80;;;27.74;27.65;100762.31;5097264;28;20040;-22
2022/06/07 08:53:56;;;;;;;2.40;1.20;;;24.10;41.80;;;27.78;27.54;100757.50;5097828;28;20408;-21
2022/06/07 08:56:27;;;;;;;1.63;0.95;;;24.10;41.70;;;27.89;27.31;100760.03;5114960;28;20089;-22
2022/06/07 08:58:57;;;;;;;1.33;0.90;;;24.20;41.60;;;27.94;27.24;100765.03;5096020;28;20054;-21
2022/06/07 09:01:56;;;;;;;2.00;1.03;;;24.20;41.40;;;28.03;27.50;100756.09;5098239;28;20399;-21
2022/06/07 09:04:31;;;;;;;0.93;0.93;;;24.30;41.50;;;28.08;27.49;100759.19;5115838;28;20135;-21
2022/06/07 09:07:14;;;;;;;1.85;0.90;;;24.30;41.50;;;28.07;27.10;100766.41;5116082;28;20071;-21
2022/06/07 09:12:36;;;;;;;1.10;1.00;;;24.40;41.60;;;28.12;27.56;100763.31;5116101;28;20051;-21
2022/06/07 09:15:19;;;;;;;0.77;0.75;;;24.30;41.60;;;28.16;27.36;100772.75;5115844;28;20047;-22
2022/06/07 09:17:54;;;;;;;1.35;1.10;;;24.30;41.60;;;28.19;27.42;100766.25;5097775;28;20047;-22
2022/06/07 09:20:36;;;;;;;1.08;1.00;;;24.40;41.60;;;28.21;27.42;100767.78;5115654;28;20055;-22
2022/06/07 09:23:42;;;;;;;2.95;0.68;;;24.40;41.70;;;28.23;27.31;100755.06;5114821;28;20055;-21
2022/06/07 09:26:36;;;;;;;1.75;0.90;;;24.40;41.70;;;28.27;27.31;100766.38;5098007;28;20050;-22
2022/06/07 09:29:34;;;;;;;0.88;0.88;;;24.40;41.70;;;28.24;27.46;100764.81;5115627;28;20048;-21
2022/06/07 09:32:00;;;;;;;1.08;0.98;;;24.40;41.80;;;28.25;27.32;100755.78;5115219;28;20062;-22
2022/06/07 09:34:29;;;;;;;1.73;1.00;;;24.40;41.70;;;28.26;27.20;100757.44;5115589;28;20043;-21
2022/06/07 09:37:16;;;;;;;2.22;0.73;;;24.50;41.80;;;28.31;27.27;100754.31;5115534;28;20069;-22
2022/06/07 09:39:43;;;;;;;0.98;0.80;;;24.50;41.70;;;28.32;27.50;100747.97;5114491;28;20044;-21
2022/06/07 09:42:17;;;;;;;3.33;1.30;;;24.50;41.70;;;28.36;27.25;100757.41;5114519;28;20058;-22
2022/06/07 09:45:17;;;;;;;1.55;1.02;;;24.50;41.80;;;28.40;27.33;100758.84;5115137;28;20075;-22
2022/06/07 09:47:43;;;;;;;0.98;0.70;;;24.60;41.80;;;28.42;27.41;100753.31;5113425;28;20055;-22
2022/06/07 09:50:21;;;;;;;3.83;0.98;;;24.60;41.70;;;28.45;27.33;100750.31;5115154;28;20502;-22
2022/06/07 09:52:57;;;;;;;1.10;1.00;;;24.70;41.60;;;28.51;27.29;100752.41;5115283;28;20040;-22
2022/06/07 09:55:39;;;;;;;1.65;0.90;;;24.70;41.50;;;28.55;27.54;100747.59;5096531;28;20039;-21
2022/06/07 09:58:22;;;;;;;4.05;1.30;;;24.70;41.50;;;28.54;27.31;100746.75;5096219;28;20039;-22
2022/06/07 10:01:01;;;;;;;1.33;0.73;;;24.70;41.80;;;28.48;27.27;100741.09;5114708;28;20055;-21
2022/06/07 10:03:30;;;;;;;1.48;0.90;;;24.70;42.00;;;28.53;27.44;100742.34;5096458;28;20055;-22
2022/06/07 10:06:23;;;;;;;4.00;1.20;;;24.70;42.10;;;28.55;27.38;100742.22;5114876;28;20052;-21
2022/06/07 10:09:06;;;;;;;3.35;1.02;;;24.70;42.00;;;28.59;27.58;100731.03;5114633;28;20448;-21
2022/06/07 10:12:16;;;;;;;3.08;1.00;;;24.80;42.00;;;28.67;27.51;100734.81;5114619;28;20056;-22
2022/06/07 10:14:49;;;;;;;3.70;1.25;;;24.90;41.90;;;28.68;27.32;100740.06;5114562;28;20043;-22
2022/06/07 10:17:47;;;;;;;3.03;1.10;;;24.90;42.00;;;28.67;27.28;100733.00;5095954;28;20059;-22
2022/06/07 10:20:48;;;;;;;4.97;1.20;;;24.90;42.00;;;28.70;27.44;100732.69;5114888;28;20130;-22
2022/06/07 10:23:38;;;;;;;2.83;1.23;;;24.90;42.00;;;28.73;27.40;100727.00;5113996;28;20445;-23
2022/06/07 10:27:00;;;;;;;4.30;1.23;;;24.90;41.90;;;28.78;27.24;100724.69;5114731;28;20142;-22
2022/06/07 10:30:17;;;;;;;4.43;1.05;;;25.00;41.90;;;28.76;27.52;100725.88;5095169;28;20653;-22
2022/06/07 10:33:08;;;;;;;2.13;1.13;;;24.90;42.00;;;28.74;27.31;100728.69;5076064;28;20189;-22
2022/06/07 10:35:55;;;;;;;2.10;1.15;;;24.90;42.10;;;28.74;27.54;100720.63;5114470;28;20047;-22
2022/06/07 10:38:38;;;;;;;3.90;1.20;;;24.90;42.10;;;28.72;27.51;100719.06;5114950;28;20139;-23
2022/06/07 10:41:39;;;;;;;2.97;0.95;;;24.90;42.10;;;28.78;27.39;100732.78;5114390;28;20075;-22
2022/06/07 10:44:25;;;;;;;3.65;1.35;;;24.90;42.10;;;28.78;27.47;100731.94;5114238;28;20054;-23
2022/06/07 10:46:51;;;;;;;1.50;0.90;;;24.80;42.10;;;28.79;27.38;100731.78;5096076;28;20146;-21